Time;durP1;ratioP1;P1;durP2;ratioP2;P2;SDS_P1;SDS_P2;PMS_P1;PMS_P2;Temp;Humidity;BMP_temperature;BMP_pressure;BME280_temperature;BME280_humidity;BME280_pressure;Samples;Min_cycle;Max_cycle;Signal;HPM_P1;HPM_P2
2021/04/12 00:02:23;;;;;;;6.70;1.50;;;;;;;8.48;53.48;101317.09;5033943;28;20491;-47
2021/04/12 00:04:54;;;;;;;6.77;1.20;;;;;;;8.54;53.88;101317.47;5035321;28;20516;-46
2021/04/12 00:07:24;;;;;;;4.70;1.10;;;;;;;8.63;53.46;101324.84;5038450;28;20452;-46
2021/04/12 00:09:55;;;;;;;4.93;1.10;;;;;;;8.49;53.67;101319.75;5037383;28;20459;-48
2021/04/12 00:12:26;;;;;;;7.03;1.40;;;;;;;8.42;53.78;101339.84;5038030;28;20479;-46
2021/04/12 00:14:56;;;;;;;3.80;1.55;;;;;;;8.29;54.21;101340.78;5037213;28;20504;-47
2021/04/12 00:17:33;;;;;;;5.73;1.40;;;;;;;8.45;53.87;101340.03;5038149;28;20681;-46
2021/04/12 00:20:06;;;;;;;4.43;1.50;;;;;;;8.43;53.80;101345.09;5037260;28;20563;-47
2021/04/12 00:22:34;;;;;;;3.33;1.53;;;;;;;8.81;53.13;101343.03;5038412;28;20472;-46
2021/04/12 00:25:06;;;;;;;4.95;1.73;;;;;;;8.56;53.26;101335.59;5055174;28;20472;-47
2021/04/12 00:27:35;;;;;;;4.47;1.33;;;;;;;8.60;53.63;101347.81;5058278;28;20614;-46
2021/04/12 00:30:09;;;;;;;4.67;1.30;;;;;;;8.22;54.00;101350.69;5056743;28;20752;-46
2021/04/12 00:32:40;;;;;;;6.13;1.40;;;;;;;8.30;54.66;101352.88;5058209;28;20454;-46
2021/04/12 00:35:10;;;;;;;6.83;1.93;;;;;;;8.06;54.98;101337.72;5056839;28;20233;-46
2021/04/12 00:37:41;;;;;;;5.00;1.50;;;;;;;7.92;55.24;101353.19;5058189;28;20490;-46
2021/04/12 00:40:14;;;;;;;2.83;1.30;;;;;;;8.13;55.56;101352.72;5056734;28;20502;-45
2021/04/12 00:43:07;;;;;;;5.20;1.90;;;;;;;8.07;55.01;101354.91;5058503;28;20217;-45
2021/04/12 00:45:55;;;;;;;3.43;1.43;;;;;;;7.82;55.52;101369.72;5043585;28;20537;-47
2021/04/12 00:48:57;;;;;;;5.60;1.50;;;;;;;7.94;55.52;101369.56;5060009;28;20565;-48
2021/04/12 00:51:33;;;;;;;11.30;1.90;;;;;;;8.15;55.23;101368.25;5016080;28;20218;-47
2021/04/12 00:54:26;;;;;;;6.93;1.90;;;;;;;7.69;56.11;101368.03;5068827;28;20652;-47
2021/04/12 00:56:57;;;;;;;6.30;1.17;;;;;;;7.63;56.28;101354.81;5077993;28;20429;-46
2021/04/12 00:59:33;;;;;;;4.72;1.58;;;;;;;8.10;54.75;101365.38;5077110;28;20238;-46
2021/04/12 01:02:08;;;;;;;5.70;1.60;;;;;;;7.92;55.47;101358.31;5077672;28;20220;-45
2021/04/12 01:04:43;;;;;;;6.18;1.30;;;;;;;8.17;54.63;101346.09;5077162;28;20240;-46
2021/04/12 01:07:22;;;;;;;5.77;2.20;;;;;;;7.83;55.61;101355.16;5078050;28;20200;-47
2021/04/12 01:10:27;;;;;;;2.70;1.33;;;;;;;7.48;56.75;101366.69;5077038;28;20578;-46
2021/04/12 01:13:08;;;;;;;8.52;1.42;;;;;;;7.40;56.80;101373.88;5057638;28;20217;-48
2021/04/12 01:15:52;;;;;;;4.75;1.10;;;;;;;7.61;56.13;101371.81;5054874;28;20237;-46
2021/04/12 01:18:43;;;;;;;10.15;1.65;;;;;;;7.92;55.27;101362.56;5056887;28;20260;-48
2021/04/12 01:21:48;;;;;;;4.88;1.35;;;;;;;7.45;56.37;101366.47;5057364;28;20229;-46
2021/04/12 01:24:35;;;;;;;2.92;1.00;;;;;;;7.53;56.38;101372.97;5056795;28;20319;-48
2021/04/12 01:27:43;;;;;;;2.25;0.95;;;;;;;7.34;56.67;101376.94;5057549;28;20288;-46
2021/04/12 01:30:31;;;;;;;6.40;1.35;;;;;;;7.41;56.70;101376.56;5040988;28;20251;-47
2021/04/12 01:33:33;;;;;;;6.85;1.77;;;;;;;7.19;57.59;101378.50;5056680;28;20220;-45
2021/04/12 01:36:24;;;;;;;3.58;1.88;;;;;;;7.75;55.68;101382.94;5057878;28;20220;-46
2021/04/12 01:39:09;;;;;;;5.05;1.20;;;;;;;7.78;55.77;101392.53;5056248;28;20234;-45
2021/04/12 01:41:50;;;;;;;7.20;2.10;;;;;;;7.86;55.82;101396.47;5056817;28;20229;-46
2021/04/12 01:44:23;;;;;;;5.35;1.77;;;;;;;7.55;56.15;101402.22;5056421;28;20530;-45
2021/04/12 01:46:53;;;;;;;5.20;1.35;;;;;;;7.68;55.66;101397.09;5057578;28;20209;-46
2021/04/12 01:49:31;;;;;;;5.43;1.50;;;;;;;7.57;55.99;101409.25;5056329;28;20244;-46
2021/04/12 01:52:13;;;;;;;3.10;1.30;;;;;;;7.57;56.28;101409.25;5057096;28;20228;-47
2021/04/12 01:54:56;;;;;;;9.93;1.90;;;;;;;7.66;55.80;101419.22;5056126;28;20723;-46
2021/04/12 01:57:46;;;;;;;3.33;1.50;;;;;;;7.57;56.06;101413.47;5057364;28;20221;-46
2021/04/12 02:00:22;;;;;;;7.32;2.58;;;;;;;7.74;56.13;101422.25;5055712;28;20243;-46
2021/04/12 02:02:55;;;;;;;3.80;1.50;;;;;;;7.26;56.76;101426.88;5057220;28;20697;-46
2021/04/12 02:05:36;;;;;;;5.25;1.23;;;;;;;7.14;57.04;101424.41;5055937;28;20241;-47
2021/04/12 02:08:14;;;;;;;5.75;1.65;;;;;;;7.54;56.25;101434.72;5056024;28;20205;-45
2021/04/12 02:10:50;;;;;;;5.60;1.70;;;;;;;7.43;57.14;101430.56;5056481;28;20211;-46
2021/04/12 02:13:28;;;;;;;8.38;2.38;;;;;;;7.56;56.67;101439.97;5055808;28;20212;-45
2021/04/12 02:16:07;;;;;;;3.15;1.50;;;;;;;7.25;57.53;101435.38;5057141;28;20204;-45
2021/04/12 02:19:02;;;;;;;5.97;1.35;;;;;;;7.59;56.92;101435.00;5055512;28;20541;-46
2021/04/12 02:21:41;;;;;;;4.32;1.10;;;;;;;7.32;57.35;101445.25;5056394;28;20316;-46
2021/04/12 02:24:16;;;;;;;12.88;1.77;;;;;;;7.30;57.34;101449.41;5055650;28;20547;-46
2021/04/12 02:27:01;;;;;;;4.38;1.70;;;;;;;7.28;57.37;101441.59;5056689;28;20511;-46
2021/04/12 02:29:32;;;;;;;5.25;1.85;;;;;;;7.51;56.81;101443.91;5055411;28;20237;-45
2021/04/12 02:32:18;;;;;;;6.97;1.90;;;;;;;7.24;57.45;101456.72;5055730;28;20308;-46
2021/04/12 02:34:48;;;;;;;3.67;1.30;;;;;;;6.87;58.15;101458.56;5055281;28;20259;-46
2021/04/12 02:37:33;;;;;;;4.85;1.95;;;;;;;6.96;57.62;101457.41;5056624;28;20521;-45
2021/04/12 02:40:18;;;;;;;5.97;2.08;;;;;;;7.25;57.18;101450.78;5055195;28;20572;-46
2021/04/12 02:42:51;;;;;;;4.35;1.75;;;;;;;7.35;57.16;101455.75;5056261;28;20216;-45
2021/04/12 02:45:25;;;;;;;5.85;1.75;;;;;;;7.22;57.17;101471.13;5055006;28;20233;-47
2021/04/12 02:48:06;;;;;;;8.13;1.60;;;;;;;7.12;57.27;101460.22;5056365;28;20292;-47
2021/04/12 02:50:41;;;;;;;7.22;1.95;;;;;;;7.47;56.50;101465.94;5055505;28;20230;-45
2021/04/12 02:53:23;;;;;;;6.72;2.10;;;;;;;7.26;56.96;101467.97;5055240;28;20217;-46
2021/04/12 02:56:08;;;;;;;15.20;1.95;;;;;;;7.55;56.22;101462.16;5056385;28;20212;-45
2021/04/12 02:59:04;;;;;;;3.38;1.63;;;;;;;7.40;56.36;101472.31;5054937;28;20236;-45
2021/04/12 03:01:50;;;;;;;3.47;1.70;;;;;;;7.30;56.29;101481.09;5055892;28;20230;-47
2021/04/12 03:04:30;;;;;;;7.22;1.98;;;;;;;7.43;56.72;101477.69;5055380;28;20257;-48
2021/04/12 03:07:14;;;;;;;13.65;2.38;;;;;;;6.81;57.34;101483.81;5055753;28;20205;-47
2021/04/12 03:09:49;;;;;;;8.45;2.10;;;;;;;7.26;56.69;101484.25;5055179;28;20320;-48
2021/04/12 03:12:53;;;;;;;8.95;1.80;;;;;;;6.95;57.42;101492.47;5055394;28;20225;-46
2021/04/12 03:15:38;;;;;;;7.60;2.10;;;;;;;7.19;57.19;101489.78;5054814;28;20536;-45
2021/04/12 03:18:15;;;;;;;6.85;2.10;;;;;;;7.08;56.91;101483.91;5055036;28;20221;-46
2021/04/12 03:20:52;;;;;;;6.43;2.08;;;;;;;7.32;56.28;101483.78;5055413;28;20216;-46
2021/04/12 03:23:54;;;;;;;10.32;2.90;;;;;;;7.27;57.36;101490.25;5054644;28;20197;-46
2021/04/12 03:26:29;;;;;;;9.35;2.95;;;;;;;6.86;57.34;101500.41;5055825;28;20205;-45
2021/04/12 03:29:04;;;;;;;6.22;2.10;;;;;;;6.88;57.43;101495.38;5054639;28;20630;-46
2021/04/12 03:31:50;;;;;;;9.95;1.75;;;;;;;6.75;57.78;101506.47;5055151;28;20275;-46
2021/04/12 03:34:20;;;;;;;5.35;2.13;;;;;;;7.02;56.90;101506.56;5054721;28;20243;-47
2021/04/12 03:37:05;;;;;;;6.05;2.00;;;;;;;6.85;57.21;101511.47;5055787;28;20219;-47
2021/04/12 03:39:45;;;;;;;4.50;1.98;;;;;;;6.73;57.37;101520.88;5054344;28;20613;-47
2021/04/12 03:42:44;;;;;;;5.32;1.88;;;;;;;6.88;57.17;101519.34;5055101;28;20315;-45
2021/04/12 03:45:41;;;;;;;10.60;3.08;;;;;;;6.88;57.24;101521.03;5012948;28;20231;-45
2021/04/12 03:48:30;;;;;;;6.95;1.73;;;;;;;6.41;58.69;101532.31;5053279;28;20197;-46
2021/04/12 03:51:09;;;;;;;8.75;1.60;;;;;;;6.71;57.49;101527.53;5054886;28;20198;-49
2021/04/12 03:54:10;;;;;;;6.93;2.13;;;;;;;7.12;56.60;101528.63;5054561;28;20627;-45
2021/04/12 03:56:56;;;;;;;4.70;1.85;;;;;;;6.77;57.52;101543.34;5055522;28;20293;-48
2021/04/12 03:59:34;;;;;;;7.15;2.03;;;;;;;6.56;58.26;101535.94;5054420;28;20543;-45
2021/04/12 04:02:13;;;;;;;4.82;1.40;;;;;;;6.30;58.58;101541.81;5054832;28;20237;-46
2021/04/12 04:04:59;;;;;;;12.63;1.85;;;;;;;6.55;58.23;101536.75;5054117;28;20650;-48
2021/04/12 04:07:40;;;;;;;8.02;1.77;;;;;;;6.53;58.24;101535.75;5055102;28;20202;-46
2021/04/12 04:10:27;;;;;;;10.43;1.70;;;;;;;6.54;57.89;101534.06;5053848;28;20549;-46
2021/04/12 04:13:06;;;;;;;9.38;2.15;;;;;;;6.58;57.66;101534.41;5054992;28;20225;-47
2021/04/12 04:15:37;;;;;;;12.18;2.40;;;;;;;6.60;57.81;101534.50;5034806;28;20241;-49
2021/04/12 04:18:22;;;;;;;6.32;1.77;;;;;;;6.50;57.61;101538.06;5034467;28;20317;-47
2021/04/12 04:21:04;;;;;;;3.35;1.45;;;;;;;6.48;57.96;101540.53;5054936;28;20201;-46
2021/04/12 04:23:42;;;;;;;13.45;2.25;;;;;;;6.82;56.70;101539.44;5053875;28;20233;-47
2021/04/12 04:26:45;;;;;;;8.57;2.38;;;;;;;6.69;57.00;101539.38;5055088;28;20259;-45
2021/04/12 04:29:37;;;;;;;7.80;2.20;;;;;;;6.85;56.69;101547.38;5053735;28;20233;-47
2021/04/12 04:32:29;;;;;;;5.95;1.77;;;;;;;6.66;57.24;101546.88;5074090;28;20227;-48
2021/04/12 04:35:26;;;;;;;6.05;1.55;;;;;;;6.78;56.66;101544.25;5073814;28;20645;-50
2021/04/12 04:38:27;;;;;;;8.40;2.47;;;;;;;6.67;57.15;101546.09;5074974;28;20228;-50
2021/04/12 04:41:03;;;;;;;4.53;1.95;;;;;;;6.46;57.75;101554.91;5054071;28;20209;-50
2021/04/12 04:43:54;;;;;;;7.95;2.60;;;;;;;6.28;58.04;101544.25;5053896;28;20240;-47
2021/04/12 04:46:34;;;;;;;6.00;2.08;;;;;;;6.38;58.33;101550.94;5054862;28;20202;-46
2021/04/12 04:49:44;;;;;;;5.55;2.55;;;;;;;6.33;58.15;101550.59;5053462;28;20241;-47
2021/04/12 04:52:20;;;;;;;6.38;2.22;;;;;;;6.54;58.02;101554.56;5057230;28;20221;-46
2021/04/12 04:54:57;;;;;;;10.25;2.53;;;;;;;6.29;58.22;101561.41;5057089;28;20247;-46
2021/04/12 04:57:37;;;;;;;8.27;2.40;;;;;;;6.69;57.38;101559.91;5058254;28;20204;-46
2021/04/12 05:00:12;;;;;;;7.57;2.90;;;;;;;6.80;57.06;101565.78;5057325;28;20244;-46
2021/04/12 05:02:57;;;;;;;8.75;2.63;;;;;;;6.52;57.30;101571.53;5058561;28;20327;-46
2021/04/12 05:05:29;;;;;;;8.63;2.90;;;;;;;6.68;56.98;101573.50;5056946;28;20237;-46
2021/04/12 05:08:42;;;;;;;8.38;2.40;;;;;;;6.46;57.82;101587.38;5058148;28;20198;-45
2021/04/12 05:11:30;;;;;;;6.75;2.92;;;;;;;6.42;58.31;101586.22;5057346;28;20227;-47
2021/04/12 05:14:09;;;;;;;10.18;3.10;;;;;;;6.42;58.23;101582.81;5064311;28;20233;-46
2021/04/12 05:16:43;;;;;;;14.75;2.80;;;;;;;6.66;57.87;101586.22;5078247;28;20205;-46
2021/04/12 05:19:22;;;;;;;6.80;2.95;;;;;;;6.62;57.65;101591.94;5076755;28;20240;-46
2021/04/12 05:22:08;;;;;;;6.05;2.33;;;;;;;6.53;57.68;101587.03;5077608;28;20217;-46
2021/04/12 05:24:43;;;;;;;10.25;3.40;;;;;;;6.77;57.20;101594.66;5076670;28;20548;-46
2021/04/12 05:27:30;;;;;;;14.82;3.50;;;;;;;6.67;57.25;101589.69;5077839;28;20290;-46
2021/04/12 05:30:33;;;;;;;13.20;3.30;;;;;;;6.95;56.65;101599.31;5076510;28;20236;-46
2021/04/12 05:33:11;;;;;;;7.47;2.83;;;;;;;6.66;57.46;101600.72;5076374;28;20231;-47
2021/04/12 05:35:47;;;;;;;8.00;2.95;;;;;;;6.89;56.99;101605.78;5077420;28;20232;-48
2021/04/12 05:38:35;;;;;;;9.80;2.60;;;;;;;6.80;57.16;101605.16;5076500;28;20228;-46
2021/04/12 05:41:15;;;;;;;15.13;3.10;;;;;;;6.74;57.45;101610.75;5077175;28;20299;-46
2021/04/12 05:43:56;;;;;;;10.25;2.60;;;;;;;7.00;57.15;101623.63;5076288;28;20232;-47
2021/04/12 05:46:45;;;;;;;8.35;3.10;;;;;;;7.00;56.92;101621.06;5077487;28;20206;-46
2021/04/12 05:49:46;;;;;;;9.55;2.50;;;;;;;7.26;56.52;101616.84;5076085;28;20260;-46
2021/04/12 05:52:47;;;;;;;10.77;2.47;;;;;;;6.66;57.47;101627.25;5044334;28;20216;-46
2021/04/12 05:55:23;;;;;;;4.93;2.60;;;;;;;7.04;57.00;101628.19;5014176;28;20242;-48
2021/04/12 05:58:19;;;;;;;12.43;2.83;;;;;;;7.54;55.90;101631.59;5069700;28;20307;-46
2021/04/12 06:01:02;;;;;;;8.40;3.22;;;;;;;7.61;55.46;101638.00;5076818;28;20227;-47
2021/04/12 06:03:39;;;;;;;12.73;2.67;;;;;;;7.04;57.48;101641.03;5075731;28;20236;-46
2021/04/12 06:06:30;;;;;;;14.07;3.03;;;;;;;7.35;56.26;101642.25;5077095;28;20192;-46
2021/04/12 06:09:32;;;;;;;10.70;3.00;;;;;;;7.36;56.26;101644.03;5075850;28;20504;-48
2021/04/12 06:12:28;;;;;;;14.93;3.67;;;;;;;7.25;57.00;101643.31;5064082;28;20634;-46
2021/04/12 06:15:37;;;;;;;8.43;2.65;;;;;;;7.18;56.90;101648.78;5064398;28;20544;-46
2021/04/12 06:18:22;;;;;;;5.15;1.70;;;;;;;7.36;56.69;101652.66;4982179;28;20223;-47
2021/04/12 06:21:03;;;;;;;8.13;2.42;;;;;;;7.27;56.59;101654.56;5054048;28;20517;-47
2021/04/12 06:23:45;;;;;;;16.23;3.03;;;;;;;7.57;55.99;101660.03;5058516;28;20686;-46
2021/04/12 06:26:32;;;;;;;12.68;2.78;;;;;;;7.82;55.38;101656.56;5076513;28;20200;-47
2021/04/12 06:29:43;;;;;;;6.15;2.53;;;;;;;7.62;55.91;101670.63;5075307;28;20323;-49
2021/04/12 06:32:34;;;;;;;8.90;3.13;;;;;;;7.64;55.53;101672.50;5047907;28;20274;-45
2021/04/12 06:35:29;;;;;;;4.57;2.13;;;;;;;7.58;56.02;101669.53;5075373;28;20315;-45
2021/04/12 06:38:04;;;;;;;5.07;2.08;;;;;;;7.63;56.00;101669.84;5059782;28;20544;-48
2021/04/12 06:40:41;;;;;;;16.17;3.00;;;;;;;8.07;55.31;101674.53;5055448;28;20225;-47
2021/04/12 06:44:03;;;;;;;4.80;1.70;;;;;;;7.84;55.05;101675.53;5052675;28;20519;-46
2021/04/12 06:47:00;;;;;;;4.32;1.92;;;;;;;7.99;54.95;101685.09;5056264;28;20430;-46
2021/04/12 06:50:11;;;;;;;7.60;2.30;;;;;;;7.89;55.01;101686.16;5052032;28;20545;-48
2021/04/12 06:53:25;;;;;;;10.70;2.80;;;;;;;8.04;54.95;101688.81;5040874;28;20940;-47
2021/04/12 06:56:28;;;;;;;9.23;1.57;;;;;;;7.82;55.07;101700.25;4994451;28;20461;-46
2021/04/12 06:59:14;;;;;;;5.00;2.07;;;;;;;8.09;54.55;101698.66;5042553;28;20450;-47
2021/04/12 07:02:11;;;;;;;5.20;1.50;;;;;;;7.63;54.88;101703.25;5068109;28;20457;-49
2021/04/12 07:05:06;;;;;;;4.27;2.00;;;;;;;7.96;54.28;101696.06;5074661;28;20487;-46
2021/04/12 07:08:12;;;;;;;16.33;2.67;;;;;;;8.22;53.51;101699.47;5075569;28;20459;-47
2021/04/12 07:11:30;;;;;;;19.93;2.47;;;;;;;8.38;53.85;101701.38;5035180;28;20552;-46
2021/04/12 07:14:29;;;;;;;7.53;2.00;;;;;;;8.86;53.12;101696.75;5033928;28;20455;-48
2021/04/12 07:17:07;;;;;;;7.47;1.80;;;;;;;8.99;52.36;101703.59;5035749;28;20822;-46
2021/04/12 07:20:06;;;;;;;8.20;2.10;;;;;;;8.84;53.20;101703.50;5053538;28;20781;-48
2021/04/12 07:22:52;;;;;;;8.10;1.73;;;;;;;8.57;53.42;101710.31;5044477;28;20458;-46
2021/04/12 07:25:41;;;;;;;7.70;2.10;;;;;;;8.78;53.40;101714.28;5052348;28;20472;-48
2021/04/12 07:28:30;;;;;;;4.87;0.97;;;;;;;8.65;52.79;101719.44;5054607;28;20458;-46
2021/04/12 07:31:32;;;;;;;6.70;1.93;;;;;;;8.88;53.20;101720.91;5055176;28;20451;-48
2021/04/12 07:34:25;;;;;;;7.57;2.20;;;;;;;8.56;53.99;101726.56;5054146;28;20537;-48
2021/04/12 07:37:16;;;;;;;9.03;2.07;;;;;;;9.01;52.59;101712.28;5052428;28;20429;-47
2021/04/12 07:40:22;;;;;;;7.00;2.03;;;;;;;9.97;51.04;101721.50;5053916;28;20484;-46
2021/04/12 07:43:32;;;;;;;7.30;2.07;;;;;;;9.68;51.64;101733.53;4997425;28;20561;-46
2021/04/12 07:46:26;;;;;;;7.40;1.80;;;;;;;9.21;51.68;101728.09;5047560;28;20427;-46
2021/04/12 07:49:30;;;;;;;7.83;2.07;;;;;;;9.82;51.33;101731.78;5038520;28;20829;-46
2021/04/12 07:52:36;;;;;;;8.67;1.40;;;;;;;10.04;50.29;101736.53;5054931;28;20454;-46
2021/04/12 07:55:24;;;;;;;4.30;1.50;;;;;;;9.86;51.06;101742.38;5031496;28;20480;-47
2021/04/12 07:58:23;;;;;;;6.47;2.07;;;;;;;10.25;49.40;101743.75;5055113;28;20456;-46
2021/04/12 08:01:17;;;;;;;5.93;1.90;;;;;;;10.49;49.23;101746.94;5074129;28;20440;-48
2021/04/12 08:04:06;;;;;;;6.00;2.37;;;;;;;10.73;48.45;101750.84;5073891;28;20479;-46
2021/04/12 08:07:21;;;;;;;7.50;1.63;;;;;;;9.86;49.58;101757.84;5075184;28;20447;-46
2021/04/12 08:10:11;;;;;;;16.03;2.13;;;;;;;10.23;49.51;101758.28;5073724;28;20561;-46
2021/04/12 08:13:15;;;;;;;10.40;2.20;;;;;;;9.95;50.22;101761.78;5074898;28;20481;-47
2021/04/12 08:16:03;;;;;;;10.93;2.50;;;;;;;10.64;48.59;101759.84;5074314;28;20497;-47
2021/04/12 08:19:00;;;;;;;6.13;1.77;;;;;;;10.37;49.29;101770.28;5073409;28;20457;-47
2021/04/12 08:22:02;;;;;;;6.43;1.63;;;;;;;10.26;48.55;101781.69;5074180;28;20461;-47
2021/04/12 08:24:59;;;;;;;5.17;1.30;;;;;;;10.18;47.62;101782.88;5074046;28;20573;-46
2021/04/12 08:28:10;;;;;;;4.07;1.37;;;;;;;10.07;47.94;101783.16;5078491;28;20512;-46
2021/04/12 08:31:08;;;;;;;10.13;2.10;;;;;;;10.73;46.99;101785.28;5077582;28;20944;-46
2021/04/12 08:34:11;;;;;;;2.60;1.10;;;;;;;10.86;44.81;101780.84;5077351;28;20481;-47
2021/04/12 08:37:18;;;;;;;1.90;0.57;;;;;;;10.78;45.13;101786.41;5078600;28;20545;-46
2021/04/12 08:39:58;;;;;;;6.37;1.70;;;;;;;10.92;44.51;101787.22;5077145;28;20481;-47
2021/04/12 08:42:39;;;;;;;7.70;2.10;;;;;;;11.70;43.00;101782.81;5078177;28;20460;-47
2021/04/12 08:45:18;;;;;;;3.80;0.70;;;;;;;10.70;45.08;101782.53;5077048;28;20485;-49
2021/04/12 08:48:20;;;;;;;3.40;1.13;;;;;;;10.24;46.40;101793.56;5078460;28;20463;-46
2021/04/12 08:51:25;;;;;;;3.20;0.80;;;;;;;10.05;46.25;101797.63;5076008;28;20462;-46
2021/04/12 08:54:46;;;;;;;4.47;1.60;;;;;;;11.06;45.19;101802.59;5057247;28;20851;-50
2021/04/12 08:57:50;;;;;;;6.47;1.50;;;;;;;10.48;44.31;101801.03;5033993;28;20863;-47
2021/04/12 09:00:36;;;;;;;6.67;1.57;;;;;;;10.89;43.59;101793.91;5056743;28;20446;-47
2021/04/12 09:03:38;;;;;;;7.10;1.17;;;;;;;10.72;43.98;101796.41;5076240;28;20448;-47
2021/04/12 09:06:22;;;;;;;3.90;1.20;;;;;;;11.48;42.70;101808.38;5078334;28;20520;-49
2021/04/12 09:09:26;;;;;;;4.43;1.30;;;;;;;11.37;44.21;101801.72;5077018;28;20482;-46
2021/04/12 09:12:27;;;;;;;3.40;1.77;;;;;;;10.76;43.12;101815.53;5059614;28;20776;-47
2021/04/12 09:15:32;;;;;;;3.00;0.93;;;;;;;10.58;42.91;101811.09;5076779;28;20478;-47
2021/04/12 09:18:33;;;;;;;6.07;1.17;;;;;;;10.77;44.97;101817.34;5077405;28;20466;-50
2021/04/12 09:21:50;;;;;;;7.17;2.50;;;;;;;10.98;41.63;101809.03;5077605;28;20564;-46
2021/04/12 09:24:37;;;;;;;6.07;1.40;;;;;;;11.46;41.31;101817.75;5014916;28;20458;-47
2021/04/12 09:27:34;;;;;;;4.37;1.33;;;;;;;11.51;41.17;101812.84;5008445;28;20527;-45
2021/04/12 09:30:17;;;;;;;8.10;0.83;;;;;;;10.96;41.83;101814.09;5059105;28;20471;-47
2021/04/12 09:33:19;;;;;;;4.13;1.03;;;;;;;11.62;40.97;101818.59;5066035;28;20799;-46
2021/04/12 09:36:36;;;;;;;3.20;0.70;;;;;;;11.65;38.96;101825.63;5066001;28;20719;-49
2021/04/12 09:39:27;;;;;;;2.07;0.60;;;;;;;11.63;39.74;101816.91;5024767;28;20582;-47
2021/04/12 09:42:19;;;;;;;6.50;1.80;;;;;;;11.61;39.21;101837.50;5064509;28;20549;-48
2021/04/12 09:45:34;;;;;;;5.87;1.30;;;;;;;11.86;40.78;101828.47;5053440;28;20519;-46
2021/04/12 09:48:36;;;;;;;6.13;1.13;;;;;;;11.31;41.23;101827.22;4985701;28;20516;-47
2021/04/12 09:51:31;;;;;;;7.73;1.17;;;;;;;11.23;41.76;101842.28;5062532;28;20762;-45
2021/04/12 09:54:22;;;;;;;5.63;1.03;;;;;;;11.50;39.89;101841.16;5066359;28;20538;-48
2021/04/12 09:57:39;;;;;;;2.07;0.60;;;;;;;11.81;40.39;101840.25;5066327;28;20456;-47
2021/04/12 10:00:21;;;;;;;7.03;1.20;;;;;;;11.49;40.28;101848.06;5064385;28;20480;-48
2021/04/12 10:03:19;;;;;;;4.67;1.10;;;;;;;11.98;42.98;101844.66;5066048;28;20478;-48
2021/04/12 10:06:19;;;;;;;3.00;0.90;;;;;;;11.00;43.73;101859.97;5065279;28;20888;-47
2021/04/12 10:09:00;;;;;;;4.37;1.13;;;;;;;11.26;44.02;101855.41;5061424;28;20446;-47
2021/04/12 10:11:37;;;;;;;5.30;1.00;;;;;;;10.77;45.53;101868.97;5065471;28;20597;-45
2021/04/12 10:14:12;;;;;;;4.57;1.17;;;;;;;10.53;46.12;101866.69;5063900;28;20925;-46
2021/04/12 10:16:40;;;;;;;4.80;0.97;;;;;;;11.29;45.30;101865.88;5065481;28;20462;-47
2021/04/12 10:19:10;;;;;;;13.97;1.53;;;;;;;11.54;45.72;101858.63;5064616;28;20487;-47
2021/04/12 10:21:43;;;;;;;6.13;1.10;;;;;;;11.35;45.56;101865.34;5064573;28;20490;-49
2021/04/12 10:24:16;;;;;;;7.27;1.67;;;;;;;11.41;45.00;101857.97;5066136;28;20485;-48
2021/04/12 10:26:46;;;;;;;8.50;1.60;;;;;;;11.82;44.63;101868.78;5072306;28;20477;-46
2021/04/12 10:29:16;;;;;;;5.67;1.43;;;;;;;12.08;44.27;101871.94;5075325;28;20815;-47
2021/04/12 10:31:52;;;;;;;7.97;2.30;;;;;;;12.49;43.91;101855.88;5075707;28;20457;-48
2021/04/12 10:34:26;;;;;;;2.50;0.90;;;;;;;11.87;43.82;101861.28;5075289;28;20916;-49
2021/04/12 10:37:00;;;;;;;2.97;1.00;;;;;;;10.72;45.25;101860.94;5076302;28;20454;-46
2021/04/12 10:39:33;;;;;;;8.23;2.13;;;;;;;10.39;46.57;101866.75;5075190;28;20482;-46
2021/04/12 10:42:11;;;;;;;5.00;1.13;;;;;;;10.57;46.74;101876.41;5076019;28;20478;-48
2021/04/12 10:44:40;;;;;;;3.60;0.90;;;;;;;9.90;48.59;101892.09;5075183;28;20478;-47
2021/04/12 10:47:12;;;;;;;4.60;1.07;;;;;;;9.19;51.43;101913.41;5075902;28;20445;-45
2021/04/12 10:49:59;;;;;;;6.70;0.97;;;;;;;8.97;53.37;101923.97;5070148;28;20475;-48
2021/04/12 10:52:37;;;;;;;5.53;1.00;;;;;;;9.07;53.53;101932.31;5064480;28;20462;-46
2021/04/12 10:55:16;;;;;;;4.37;1.00;;;;;;;8.58;55.22;101934.25;5072646;28;20515;-48
2021/04/12 10:57:58;;;;;;;4.50;1.10;;;;;;;8.51;55.26;101938.06;5075786;28;20436;-46
2021/04/12 11:00:36;;;;;;;3.23;1.13;;;;;;;8.19;56.32;101926.41;5075302;28;20461;-47
2021/04/12 11:03:45;;;;;;;10.00;1.40;;;;;;;8.68;55.69;101935.78;5074916;28;20460;-50
2021/04/12 11:06:57;;;;;;;4.70;1.50;;;;;;;8.88;55.40;101931.06;5075781;28;20532;-47
2021/04/12 11:09:33;;;;;;;7.10;1.37;;;;;;;8.97;54.67;101910.22;5074618;28;20750;-49
2021/04/12 11:12:11;;;;;;;4.43;1.50;;;;;;;9.19;55.14;101912.53;5074772;28;20520;-47
2021/04/12 11:14:46;;;;;;;7.63;2.23;;;;;;;9.13;55.74;101927.56;5074523;28;20484;-47
2021/04/12 11:17:17;;;;;;;6.37;1.43;;;;;;;9.99;53.93;101926.16;5075961;28;20433;-46
2021/04/12 11:19:53;;;;;;;6.93;1.40;;;;;;;10.27;52.10;101920.16;5074274;28;20917;-47
2021/04/12 11:22:39;;;;;;;18.67;7.97;;;;;;;10.11;53.04;101921.78;5075338;28;20868;-48
2021/04/12 11:25:11;;;;;;;6.60;3.03;;;;;;;9.92;54.70;101924.00;5054163;28;20920;-47
2021/04/12 11:28:00;;;;;;;7.83;2.13;;;;;;;9.95;54.06;101925.09;5055573;28;20441;-48
2021/04/12 11:30:34;;;;;;;6.80;1.87;;;;;;;10.05;55.40;101923.97;5054697;28;20450;-47
2021/04/12 11:33:17;;;;;;;5.70;1.70;;;;;;;9.85;55.28;101917.59;5054224;28;20450;-46
2021/04/12 11:35:53;;;;;;;3.70;1.70;;;;;;;10.13;54.92;101917.63;5055468;28;20456;-47
2021/04/12 11:38:22;;;;;;;6.67;1.80;;;;;;;10.38;54.73;101915.66;5054240;28;20445;-47
2021/04/12 11:40:52;;;;;;;4.63;1.47;;;;;;;10.23;55.56;101915.59;5055299;28;20521;-47
2021/04/12 11:43:25;;;;;;;5.80;2.43;;;;;;;10.56;54.60;101913.31;5054589;28;20907;-48
2021/04/12 11:45:58;;;;;;;4.47;1.67;;;;;;;10.96;54.66;101913.94;5055170;28;20546;-46
2021/04/12 11:48:33;;;;;;;6.67;2.17;;;;;;;11.56;53.95;101908.72;5054319;28;20445;-49
2021/04/12 11:51:02;;;;;;;15.20;6.60;;;;;;;11.51;52.21;101908.47;5055096;28;20509;-46
2021/04/12 11:53:40;;;;;;;7.70;2.60;;;;;;;11.88;55.77;101899.25;5071561;28;20831;-49
2021/04/12 11:56:12;;;;;;;4.53;2.10;;;;;;;11.82;52.95;101898.91;5075310;28;20488;-49
2021/04/12 11:58:41;;;;;;;3.87;2.20;;;;;;;11.53;48.84;101895.63;5073972;28;20906;-47
2021/04/12 12:01:16;;;;;;;20.57;5.10;;;;;;;11.23;50.34;101895.66;5078077;28;20841;-46
2021/04/12 12:04:03;;;;;;;3.63;1.50;;;;;;;11.05;50.52;101897.28;5078199;28;20478;-47
2021/04/12 12:06:55;;;;;;;4.47;1.53;;;;;;;11.10;49.61;101897.53;5079434;28;21214;-48
2021/04/12 12:09:35;;;;;;;6.60;1.20;;;;;;;10.63;50.87;101902.59;5078007;28;20929;-47
2021/04/12 12:12:08;;;;;;;5.60;1.60;;;;;;;11.51;49.70;101898.13;5078499;28;21008;-50
2021/04/12 12:14:36;;;;;;;3.50;1.43;;;;;;;11.30;49.22;101895.22;5077608;28;20570;-49
2021/04/12 12:17:10;;;;;;;6.90;1.57;;;;;;;10.95;49.86;101905.28;5079009;28;20461;-47
2021/04/12 12:19:45;;;;;;;9.40;2.50;;;;;;;10.72;49.53;101909.09;5076742;28;20787;-46
2021/04/12 12:22:19;;;;;;;9.10;3.07;;;;;;;11.43;48.11;101910.59;5078817;28;20776;-47
2021/04/12 12:24:49;;;;;;;5.00;1.30;;;;;;;11.18;48.98;101906.63;5066277;28;20548;-48
2021/04/12 12:27:19;;;;;;;7.20;1.73;;;;;;;11.37;48.86;101914.56;5058907;28;20502;-49
2021/04/12 12:29:48;;;;;;;3.23;1.40;;;;;;;11.42;48.85;101915.69;5057374;28;20487;-47
2021/04/12 12:32:43;;;;;;;4.80;1.80;;;;;;;11.88;46.89;101905.34;5058542;28;20482;-49
2021/04/12 12:35:17;;;;;;;3.90;1.40;;;;;;;11.61;48.12;101900.44;5057707;28;20796;-47
2021/04/12 12:38:14;;;;;;;9.30;2.83;;;;;;;12.63;45.15;101901.53;5058765;28;20517;-49
2021/04/12 12:40:47;;;;;;;5.57;1.83;;;;;;;13.27;45.59;101891.69;5055793;28;20490;-48
2021/04/12 12:43:18;;;;;;;10.10;2.30;;;;;;;12.85;44.61;101893.94;5057568;28;20544;-47
2021/04/12 12:45:44;;;;;;;7.00;2.37;;;;;;;13.89;44.07;101879.09;5058549;28;20841;-49
2021/04/12 12:48:17;;;;;;;14.03;3.33;;;;;;;13.48;44.22;101878.03;5057586;28;20466;-49
2021/04/12 12:50:49;;;;;;;4.77;1.50;;;;;;;13.28;41.58;101879.66;5058302;28;20480;-47
2021/04/12 12:53:23;;;;;;;3.70;1.70;;;;;;;13.25;41.73;101880.38;5071349;28;20543;-47
2021/04/12 12:55:53;;;;;;;6.63;1.73;;;;;;;13.07;42.81;101881.25;5078443;28;20762;-47